createdAt,value
2022-11-18T00:01:18.394Z,7.25
2022-11-18T00:03:46.275Z,10.80
2022-11-18T00:06:17.245Z,8.75
2022-11-18T00:08:44.954Z,8.85
2022-11-18T00:11:37.578Z,8.80
2022-11-18T00:14:19.186Z,10.57
2022-11-18T00:16:57.758Z,8.57
2022-11-18T00:19:28.014Z,12.43
2022-11-18T00:21:55.695Z,9.55
2022-11-18T00:24:24.202Z,12.55
2022-11-18T00:26:52.007Z,11.40
2022-11-18T00:29:19.949Z,10.65
2022-11-18T00:31:47.683Z,8.18
2022-11-18T00:34:16.775Z,8.65
2022-11-18T00:36:45.263Z,10.80
2022-11-18T00:39:14.391Z,7.90
2022-11-18T00:42:00.591Z,7.95
2022-11-18T00:44:28.030Z,7.78
2022-11-18T00:46:55.454Z,9.15
2022-11-18T00:49:23.421Z,11.73
2022-11-18T00:51:50.918Z,9.77
2022-11-18T00:54:18.818Z,8.18
2022-11-18T00:56:46.251Z,8.32
2022-11-18T00:59:13.604Z,10.25
2022-11-18T01:01:41.154Z,12.00
2022-11-18T01:04:08.530Z,8.15
2022-11-18T01:06:35.895Z,9.05
2022-11-18T01:09:03.565Z,11.07
2022-11-18T01:11:49.371Z,7.20
2022-11-18T01:14:16.860Z,8.60
2022-11-18T01:16:44.220Z,9.32
2022-11-18T01:19:11.743Z,7.38
2022-11-18T01:21:39.075Z,10.95
2022-11-18T01:24:06.764Z,12.07
2022-11-18T01:26:34.108Z,9.02
2022-11-18T01:29:01.512Z,8.95
2022-11-18T01:31:28.921Z,10.63
2022-11-18T01:33:56.858Z,7.95
2022-11-18T01:36:27.410Z,10.70
2022-11-18T01:38:55.586Z,9.15
2022-11-18T01:41:25.334Z,9.02
2022-11-18T01:43:59.006Z,10.13
2022-11-18T01:46:31.646Z,9.05
2022-11-18T01:49:12.156Z,10.07
2022-11-18T01:51:46.838Z,8.80
2022-11-18T01:54:20.260Z,9.90
2022-11-18T01:56:57.829Z,11.35
2022-11-18T01:59:31.143Z,11.25
2022-11-18T02:02:00.773Z,9.52
2022-11-18T02:04:28.386Z,7.35
2022-11-18T02:06:56.777Z,9.30
2022-11-18T02:09:24.188Z,11.32
2022-11-18T02:11:53.985Z,9.38
2022-11-18T02:14:29.047Z,8.10
2022-11-18T02:17:19.424Z,9.48
2022-11-18T02:20:07.038Z,7.93
2022-11-18T02:23:12.172Z,8.70
2022-11-18T02:26:10.999Z,7.63
2022-11-18T02:29:11.645Z,10.77
2022-11-18T02:32:07.974Z,7.85
2022-11-18T02:34:59.287Z,10.10
2022-11-18T02:37:47.751Z,7.70
2022-11-18T02:40:45.616Z,8.50
2022-11-18T02:43:28.058Z,8.77
2022-11-18T02:46:01.792Z,8.82
2022-11-18T02:48:33.791Z,8.43
2022-11-18T02:51:03.132Z,7.28
2022-11-18T02:53:32.950Z,12.20
2022-11-18T02:56:02.452Z,7.93
2022-11-18T02:58:29.972Z,10.88
2022-11-18T03:01:00.020Z,11.05
2022-11-18T03:03:36.534Z,10.30
2022-11-18T03:06:32.716Z,10.93
2022-11-18T03:09:36.965Z,7.95
2022-11-18T03:12:45.085Z,9.32
2022-11-18T03:15:49.078Z,10.32
2022-11-18T03:18:33.490Z,10.30
2022-11-18T03:21:11.669Z,11.18
2022-11-18T03:23:43.923Z,8.68
2022-11-18T03:26:25.016Z,9.32
2022-11-18T03:28:56.479Z,8.48
2022-11-18T03:31:28.452Z,9.55
2022-11-18T03:34:19.422Z,9.20
2022-11-18T03:36:52.078Z,10.68
2022-11-18T03:39:21.928Z,9.60
2022-11-18T03:42:00.997Z,8.10
2022-11-18T03:44:33.772Z,10.27
2022-11-18T03:47:12.550Z,8.00
2022-11-18T03:49:48.491Z,9.33
2022-11-18T03:52:20.052Z,7.63
2022-11-18T03:54:50.342Z,11.27
2022-11-18T03:57:23.702Z,13.13
2022-11-18T04:00:08.839Z,10.27
2022-11-18T04:02:37.190Z,12.73
2022-11-18T04:05:08.848Z,11.20
2022-11-18T04:08:02.616Z,11.15
2022-11-18T04:10:51.951Z,12.93
2022-11-18T04:13:24.386Z,9.63
2022-11-18T04:15:53.797Z,16.73
2022-11-18T04:18:21.585Z,12.53
2022-11-18T04:20:48.916Z,9.37
2022-11-18T04:23:16.348Z,11.73
2022-11-18T04:25:43.735Z,10.73
2022-11-18T04:28:11.281Z,28.70
2022-11-18T04:30:38.826Z,24.33
2022-11-18T04:33:06.260Z,17.93
2022-11-18T04:35:33.723Z,11.30
2022-11-18T04:38:01.082Z,12.37
2022-11-18T04:40:28.487Z,14.13
2022-11-18T04:42:55.823Z,11.47
2022-11-18T04:45:23.242Z,13.00
2022-11-18T04:47:50.723Z,13.47
2022-11-18T04:50:18.254Z,14.20
2022-11-18T04:52:46.734Z,12.13
2022-11-18T04:55:14.103Z,10.30
2022-11-18T04:57:41.491Z,12.37
2022-11-18T05:00:09.594Z,9.40
2022-11-18T05:02:36.919Z,10.40
2022-11-18T05:05:04.781Z,11.60
2022-11-18T05:07:32.147Z,11.63
2022-11-18T05:09:59.579Z,10.83
2022-11-18T05:12:45.356Z,11.10
2022-11-18T05:15:12.781Z,11.07
2022-11-18T05:17:40.156Z,11.20
2022-11-18T05:20:08.286Z,10.53
2022-11-18T05:22:35.690Z,13.10
2022-11-18T05:25:03.689Z,10.10
2022-11-18T05:27:31.065Z,11.87
2022-11-18T05:29:58.539Z,12.03
2022-11-18T05:32:26.043Z,13.33
2022-11-18T05:34:53.415Z,13.00
2022-11-18T05:37:20.815Z,11.93
2022-11-18T05:39:48.178Z,11.50
2022-11-18T05:42:34.128Z,14.40
2022-11-18T05:45:01.517Z,15.40
2022-11-18T05:47:48.833Z,14.33
2022-11-18T05:50:21.130Z,12.93
2022-11-18T05:52:49.013Z,14.13
2022-11-18T05:55:18.092Z,10.07
2022-11-18T05:57:45.575Z,14.77
2022-11-18T06:00:14.391Z,16.23
2022-11-18T06:02:43.702Z,12.50
2022-11-18T06:05:12.425Z,10.87
2022-11-18T06:07:43.021Z,15.43
2022-11-18T06:10:16.227Z,14.23
2022-11-18T06:12:47.763Z,13.60
2022-11-18T06:15:20.231Z,12.35
2022-11-18T06:18:06.044Z,13.83
2022-11-18T06:20:36.200Z,8.77
2022-11-18T06:23:03.631Z,11.57
2022-11-18T06:25:31.857Z,10.27
2022-11-18T06:28:02.546Z,11.37
2022-11-18T06:30:30.085Z,10.60
2022-11-18T06:32:57.478Z,11.70
2022-11-18T06:35:25.064Z,11.73
2022-11-18T06:37:52.391Z,10.60
2022-11-18T06:40:19.883Z,12.33
2022-11-18T06:43:05.727Z,10.83
2022-11-18T06:45:33.257Z,10.67
2022-11-18T06:48:01.260Z,11.53
2022-11-18T06:50:28.952Z,8.53
2022-11-18T06:52:56.824Z,12.17
2022-11-18T06:55:24.693Z,10.73
2022-11-18T06:57:52.001Z,10.93
2022-11-18T07:00:19.870Z,13.43
2022-11-18T07:02:47.542Z,12.33
2022-11-18T07:05:14.990Z,12.23
2022-11-18T07:07:42.686Z,17.60
2022-11-18T07:10:10.591Z,10.30
2022-11-18T07:12:37.932Z,10.20
2022-11-18T07:15:05.901Z,11.97
2022-11-18T07:17:33.252Z,12.47
2022-11-18T07:20:00.805Z,11.60
2022-11-18T07:22:28.565Z,10.63
2022-11-18T07:24:56.032Z,12.53
2022-11-18T07:27:23.389Z,10.80
2022-11-18T07:29:50.727Z,15.67
2022-11-18T07:32:18.136Z,12.43
2022-11-18T07:34:46.102Z,11.30
2022-11-18T07:37:13.446Z,14.17
2022-11-18T07:39:40.985Z,8.63
2022-11-18T07:42:09.851Z,9.57
2022-11-18T07:44:37.418Z,9.37
2022-11-18T07:47:04.797Z,10.13
2022-11-18T07:49:32.179Z,11.00
2022-11-18T07:51:59.729Z,8.43
2022-11-18T07:54:27.167Z,8.73
2022-11-18T07:56:54.807Z,7.37
2022-11-18T07:59:22.246Z,6.63
2022-11-18T08:01:49.769Z,9.73
2022-11-18T08:04:18.124Z,8.90
2022-11-18T08:06:45.769Z,9.70
2022-11-18T08:09:13.254Z,9.47
2022-11-18T08:11:41.104Z,9.80
2022-11-18T08:14:08.595Z,8.80
2022-11-18T08:16:36.009Z,9.03
2022-11-18T08:19:03.922Z,12.20
2022-11-18T08:21:31.530Z,7.93
2022-11-18T08:23:59.161Z,10.53
2022-11-18T08:26:27.441Z,8.60
2022-11-18T08:29:24.781Z,8.40
2022-11-18T08:31:52.931Z,9.60
2022-11-18T08:34:20.383Z,9.47
2022-11-18T08:36:47.916Z,11.37
2022-11-18T08:39:15.508Z,9.87
2022-11-18T08:41:44.500Z,9.17
2022-11-18T08:44:14.840Z,13.77
2022-11-18T08:46:43.443Z,9.67
2022-11-18T08:49:10.825Z,14.20
2022-11-18T08:51:38.238Z,12.40
2022-11-18T08:54:05.755Z,10.77
2022-11-18T08:56:33.234Z,12.20
2022-11-18T08:59:00.747Z,11.93
2022-11-18T09:01:28.740Z,10.13
2022-11-18T09:03:57.835Z,15.00
2022-11-18T09:06:25.648Z,14.43
2022-11-18T09:08:53.937Z,10.90
2022-11-18T09:11:23.725Z,10.10
2022-11-18T09:16:43.787Z,13.07
2022-11-18T09:21:58.589Z,8.77
2022-11-18T09:24:26.036Z,12.17
2022-11-18T09:26:54.038Z,11.57
2022-11-18T09:29:25.633Z,12.00
2022-11-18T09:31:54.592Z,12.10
2022-11-18T09:34:22.935Z,11.47
2022-11-18T09:36:50.702Z,14.30
2022-11-18T09:39:18.433Z,10.40
2022-11-18T09:41:49.021Z,12.47
2022-11-18T09:44:55.014Z,17.63
2022-11-18T09:47:31.740Z,10.83
2022-11-18T09:50:26.742Z,13.30
2022-11-18T09:53:20.898Z,12.43
2022-11-18T09:55:50.945Z,16.67
2022-11-18T09:58:32.633Z,13.33
2022-11-18T10:01:01.255Z,16.00
2022-11-18T10:03:31.697Z,21.90
2022-11-18T10:06:24.145Z,18.23
2022-11-18T10:09:25.039Z,20.10
2022-11-18T10:12:27.768Z,13.77
2022-11-18T10:15:21.204Z,17.33
2022-11-18T10:18:45.147Z,15.53
2022-11-18T10:21:32.180Z,18.63
2022-11-18T10:24:09.662Z,14.17
2022-11-18T10:26:39.764Z,15.30
2022-11-18T10:29:10.174Z,10.27
2022-11-18T10:32:03.841Z,13.23
2022-11-18T10:34:33.343Z,15.53
2022-11-18T10:37:13.483Z,9.17
2022-11-18T10:39:54.948Z,12.87
2022-11-18T10:42:29.647Z,9.70
2022-11-18T10:45:17.487Z,13.67
2022-11-18T10:48:01.336Z,12.57
2022-11-18T10:50:44.063Z,9.63
2022-11-18T10:53:34.062Z,7.93
2022-11-18T10:56:09.553Z,14.80
2022-11-18T10:58:41.660Z,11.03
2022-11-18T11:04:25.031Z,9.50
2022-11-18T11:06:52.877Z,11.13
2022-11-18T11:09:30.166Z,12.80
2022-11-18T11:12:00.830Z,13.07
2022-11-18T11:15:02.433Z,10.63
2022-11-18T11:18:15.646Z,13.33
2022-11-18T11:20:43.292Z,14.67
2022-11-18T11:23:12.637Z,12.83
2022-11-18T11:28:57.364Z,13.47
2022-11-18T11:32:01.598Z,15.97
2022-11-18T11:35:18.651Z,12.63
2022-11-18T11:37:55.043Z,13.43
2022-11-18T11:40:43.973Z,16.40
2022-11-18T11:43:50.213Z,13.57
2022-11-18T11:47:06.629Z,16.30
2022-11-18T11:50:21.423Z,14.90
2022-11-18T11:53:17.603Z,16.37
2022-11-18T11:55:58.084Z,14.27
2022-11-18T11:59:08.406Z,17.40
2022-11-18T12:02:23.797Z,18.47
2022-11-18T12:04:55.076Z,18.70
2022-11-18T12:07:29.520Z,16.90
2022-11-18T12:10:16.651Z,17.03
2022-11-18T12:13:09.065Z,18.37
2022-11-18T12:18:33.267Z,16.67
2022-11-18T12:21:00.732Z,18.67
2022-11-18T12:23:30.368Z,18.97
2022-11-18T12:26:02.059Z,18.50
2022-11-18T12:28:39.130Z,16.67
2022-11-18T12:31:38.636Z,18.87
2022-11-18T12:34:31.712Z,17.30
2022-11-18T12:37:45.413Z,17.40
2022-11-18T12:40:53.173Z,16.23
2022-11-18T12:44:05.853Z,14.97
2022-11-18T12:46:52.759Z,18.67
2022-11-18T12:50:05.695Z,17.10
2022-11-18T12:52:53.787Z,19.93
2022-11-18T12:55:25.532Z,21.17
2022-11-18T12:57:53.059Z,15.80
2022-11-18T13:00:52.769Z,22.13
2022-11-18T13:03:25.877Z,20.20
2022-11-18T13:06:01.707Z,18.97
2022-11-18T13:08:29.897Z,24.83
2022-11-18T13:11:26.736Z,19.60
2022-11-18T13:14:14.828Z,19.37
2022-11-18T13:17:02.874Z,19.27
2022-11-18T13:19:30.234Z,26.10
2022-11-18T13:22:31.915Z,22.23
2022-11-18T13:24:59.390Z,22.13
2022-11-18T13:27:48.272Z,18.60
2022-11-18T13:30:16.511Z,19.50
2022-11-18T13:32:48.377Z,18.07
2022-11-18T13:35:21.670Z,19.77
2022-11-18T13:37:55.109Z,22.93
2022-11-18T13:40:27.436Z,23.17
2022-11-18T13:42:54.910Z,21.40
2022-11-18T13:45:27.612Z,20.33
2022-11-18T13:48:05.930Z,18.43
2022-11-18T13:50:44.002Z,16.97
2022-11-18T13:53:37.149Z,16.73
2022-11-18T13:56:34.392Z,15.07
2022-11-18T13:59:17.030Z,17.57
2022-11-18T14:01:46.956Z,17.67
2022-11-18T14:04:27.777Z,18.07
2022-11-18T14:07:32.043Z,17.47
2022-11-18T14:10:06.461Z,17.73
2022-11-18T14:12:35.711Z,18.87
2022-11-18T14:15:14.261Z,16.77
2022-11-18T14:17:51.862Z,18.50
2022-11-18T14:20:19.571Z,17.10
2022-11-18T14:22:50.857Z,21.53
2022-11-18T14:25:31.561Z,19.65
2022-11-18T14:28:23.554Z,19.93
2022-11-18T14:31:04.645Z,20.45
2022-11-18T14:33:36.419Z,18.60
2022-11-18T14:36:15.741Z,21.48
2022-11-18T14:39:11.723Z,20.00
2022-11-18T14:41:47.464Z,18.03
2022-11-18T14:44:15.191Z,16.37
2022-11-18T14:46:49.866Z,18.13
2022-11-18T14:49:22.169Z,17.23
2022-11-18T14:51:51.611Z,19.30
2022-11-18T14:54:26.431Z,16.63
2022-11-18T14:57:01.523Z,19.83
2022-11-18T14:59:29.131Z,20.67
2022-11-18T15:01:57.192Z,18.40
2022-11-18T15:04:25.391Z,17.50
2022-11-18T15:06:53.263Z,17.20
2022-11-18T15:09:20.969Z,17.87
2022-11-18T15:11:48.315Z,17.30
2022-11-18T15:14:15.994Z,16.33
2022-11-18T15:16:43.562Z,15.63
2022-11-18T15:19:15.254Z,17.73
2022-11-18T15:21:43.575Z,16.60
2022-11-18T15:24:11.068Z,20.83
2022-11-18T15:26:40.870Z,20.50
2022-11-18T15:29:22.881Z,20.40
2022-11-18T15:31:50.726Z,16.02
2022-11-18T15:34:20.694Z,20.00
2022-11-18T15:36:49.305Z,20.70
2022-11-18T15:39:16.726Z,20.83
2022-11-18T15:41:44.157Z,17.80
2022-11-18T15:44:12.177Z,18.93
2022-11-18T15:46:40.085Z,19.43
2022-11-18T15:49:11.770Z,21.07
2022-11-18T15:51:40.327Z,19.52
2022-11-18T15:54:07.851Z,19.47
2022-11-18T15:56:35.405Z,17.27
2022-11-18T15:59:05.519Z,19.87
2022-11-18T16:01:35.267Z,23.50
2022-11-18T16:04:04.199Z,20.43
2022-11-18T16:06:32.089Z,22.57
2022-11-18T16:09:00.636Z,24.13
2022-11-18T16:11:47.928Z,20.93
2022-11-18T16:14:18.379Z,19.40
2022-11-18T16:16:48.398Z,21.83
2022-11-18T16:19:18.632Z,18.60
2022-11-18T16:21:50.947Z,24.00
2022-11-18T16:24:26.197Z,22.73
2022-11-18T16:26:53.653Z,17.77
2022-11-18T16:29:21.386Z,18.87
2022-11-18T16:31:54.292Z,20.33
2022-11-18T16:34:27.352Z,26.90
2022-11-18T16:36:57.426Z,19.97
2022-11-18T16:39:26.816Z,18.07
2022-11-18T16:42:08.262Z,21.80
2022-11-18T16:44:37.302Z,16.88
2022-11-18T16:47:12.329Z,19.40
2022-11-18T16:49:42.326Z,15.43
2022-11-18T16:52:09.662Z,16.97
2022-11-18T16:54:42.839Z,24.40
2022-11-18T16:57:12.147Z,21.40
2022-11-18T16:59:39.640Z,16.37
2022-11-18T17:02:07.196Z,17.90
2022-11-18T17:04:37.273Z,14.70
2022-11-18T17:07:05.294Z,15.00
2022-11-18T17:09:32.838Z,15.50
2022-11-18T17:12:00.861Z,13.07
2022-11-18T17:14:29.931Z,15.43
2022-11-18T17:16:57.887Z,12.97
2022-11-18T17:19:25.749Z,14.33
2022-11-18T17:21:53.146Z,13.00
2022-11-18T17:24:23.211Z,15.87
2022-11-18T17:26:52.230Z,10.57
2022-11-18T17:29:20.266Z,12.33
2022-11-18T17:31:47.938Z,9.10
2022-11-18T17:34:15.850Z,10.90
2022-11-18T17:36:43.671Z,8.70
2022-11-18T17:39:12.352Z,12.17
2022-11-18T17:41:59.833Z,9.97
2022-11-18T17:44:28.900Z,11.30
2022-11-18T17:46:56.596Z,6.20
2022-11-18T17:49:24.109Z,11.67
2022-11-18T17:51:51.767Z,10.30
2022-11-18T17:54:20.505Z,10.73
2022-11-18T17:56:48.549Z,9.87
2022-11-18T17:59:17.599Z,9.83
2022-11-18T18:01:45.833Z,10.77
2022-11-18T18:04:21.517Z,9.93
2022-11-18T18:06:51.593Z,12.40
2022-11-18T18:09:30.537Z,9.87
2022-11-18T18:12:00.085Z,9.60
2022-11-18T18:14:27.547Z,8.20
2022-11-18T18:16:54.960Z,6.47
2022-11-18T18:19:23.362Z,9.70
2022-11-18T18:21:51.105Z,8.00
2022-11-18T18:24:21.098Z,10.37
2022-11-18T18:26:49.158Z,8.60
2022-11-18T18:29:16.637Z,6.77
2022-11-18T18:31:43.990Z,7.10
2022-11-18T18:34:11.772Z,7.93
2022-11-18T18:36:39.227Z,10.53
2022-11-18T18:39:06.596Z,7.43
2022-11-18T18:41:33.979Z,6.93
2022-11-18T18:44:01.657Z,6.33
2022-11-18T18:46:30.794Z,5.80
2022-11-18T18:49:07.118Z,4.90
2022-11-18T18:51:46.263Z,6.20
2022-11-18T18:54:16.074Z,6.40
2022-11-18T18:56:43.815Z,5.20
2022-11-18T18:59:11.629Z,7.60
2022-11-18T19:01:39.297Z,6.57
2022-11-18T19:04:08.191Z,5.70
2022-11-18T19:09:26.009Z,3.47
2022-11-18T19:12:12.774Z,3.47
2022-11-18T19:14:40.399Z,5.03
2022-11-18T19:17:12.452Z,5.00
2022-11-18T19:20:00.118Z,5.73
2022-11-18T19:22:31.257Z,5.40
2022-11-18T19:24:59.924Z,4.97
2022-11-18T19:27:28.765Z,4.83
2022-11-18T19:29:56.206Z,7.97
2022-11-18T19:32:26.692Z,3.70
2022-11-18T19:34:54.120Z,5.33
2022-11-18T19:37:21.533Z,4.77
2022-11-18T19:39:48.904Z,4.37
2022-11-18T19:42:16.271Z,3.00
2022-11-18T19:44:43.735Z,3.63
2022-11-18T19:47:11.062Z,6.90
2022-11-18T19:49:38.510Z,4.70
2022-11-18T19:52:05.923Z,3.40
2022-11-18T19:54:33.389Z,4.23
2022-11-18T19:57:03.917Z,5.00
2022-11-18T19:59:31.505Z,6.83
2022-11-18T20:01:58.858Z,5.60
2022-11-18T20:04:26.355Z,4.90
2022-11-18T20:06:53.922Z,5.03
2022-11-18T20:09:21.643Z,4.37
2022-11-18T20:11:49.282Z,3.80
2022-11-18T20:14:17.264Z,6.10
2022-11-18T20:16:44.608Z,5.60
2022-11-18T20:19:17.385Z,3.90
2022-11-18T20:21:45.132Z,3.43
2022-11-18T20:24:18.266Z,4.03
2022-11-18T20:26:46.078Z,6.23
2022-11-18T20:29:13.582Z,4.67
2022-11-18T20:31:41.771Z,4.60
2022-11-18T20:34:13.208Z,4.77
2022-11-18T20:36:41.174Z,3.63
2022-11-18T20:39:13.986Z,4.97
2022-11-18T20:41:41.371Z,4.47
2022-11-18T20:44:08.787Z,4.53
2022-11-18T20:46:36.192Z,3.53
2022-11-18T20:49:03.571Z,6.13
2022-11-18T20:51:30.874Z,5.17
2022-11-18T20:53:59.935Z,3.73
2022-11-18T20:56:28.052Z,5.00
2022-11-18T20:58:58.626Z,4.13
2022-11-18T21:01:28.020Z,3.87
2022-11-18T21:03:58.550Z,5.63
2022-11-18T21:06:28.241Z,4.37
2022-11-18T21:08:57.970Z,4.70
2022-11-18T21:11:26.016Z,3.87
2022-11-18T21:14:12.407Z,4.17
2022-11-18T21:16:42.415Z,5.90
2022-11-18T21:19:10.240Z,4.73
2022-11-18T21:21:52.302Z,5.73
2022-11-18T21:24:27.164Z,4.25
2022-11-18T21:26:55.408Z,5.23
2022-11-18T21:29:26.303Z,6.17
2022-11-18T21:31:54.500Z,5.37
2022-11-18T21:34:22.795Z,3.83
2022-11-18T21:36:54.668Z,3.87
2022-11-18T21:39:24.237Z,4.23
2022-11-18T21:41:57.909Z,5.73
2022-11-18T21:44:28.414Z,5.10
2022-11-18T21:46:56.779Z,5.13
2022-11-18T21:49:24.215Z,5.27
2022-11-18T21:51:51.604Z,4.57
2022-11-18T21:54:18.990Z,7.07
2022-11-18T21:56:46.396Z,5.27
2022-11-18T21:59:14.023Z,8.37
2022-11-18T22:01:41.327Z,5.50
2022-11-18T22:04:28.676Z,5.87
2022-11-18T22:06:56.177Z,3.80
2022-11-18T22:09:24.071Z,4.73
2022-11-18T22:11:51.276Z,3.80
2022-11-18T22:14:19.102Z,6.23
2022-11-18T22:16:46.437Z,5.93
2022-11-18T22:19:13.790Z,8.43
2022-11-18T22:21:41.106Z,6.00
2022-11-18T22:24:09.104Z,5.23
2022-11-18T22:26:36.404Z,7.00
2022-11-18T22:29:03.834Z,5.63
2022-11-18T22:31:31.119Z,6.37
2022-11-18T22:33:58.538Z,5.77
2022-11-18T22:36:27.511Z,6.87
2022-11-18T22:38:55.814Z,6.87
2022-11-18T22:41:46.848Z,7.37
2022-11-18T22:44:16.285Z,4.33
2022-11-18T22:46:45.336Z,8.60
2022-11-18T22:49:13.733Z,4.73
2022-11-18T22:51:41.268Z,5.83
2022-11-18T22:56:57.385Z,5.77
2022-11-18T22:59:25.312Z,4.73
2022-11-18T23:01:53.099Z,9.20
2022-11-18T23:04:20.670Z,8.77
2022-11-18T23:06:51.146Z,5.53
2022-11-18T23:09:18.950Z,4.83
2022-11-18T23:12:05.203Z,4.83
2022-11-18T23:14:32.698Z,5.50
2022-11-18T23:17:00.213Z,5.30
2022-11-18T23:19:27.601Z,4.50
2022-11-18T23:21:54.943Z,5.87
2022-11-18T23:24:22.678Z,6.47
2022-11-18T23:26:50.111Z,5.63
2022-11-18T23:29:19.174Z,4.87
2022-11-18T23:31:46.851Z,4.97
2022-11-18T23:34:15.751Z,3.97
2022-11-18T23:36:43.761Z,6.23
2022-11-18T23:39:11.725Z,3.13
2022-11-18T23:41:39.967Z,4.27
2022-11-18T23:44:07.670Z,3.43
2022-11-18T23:46:35.332Z,5.00
2022-11-18T23:49:02.725Z,3.80
2022-11-18T23:51:30.054Z,5.17
2022-11-18T23:53:58.208Z,4.97
2022-11-18T23:56:27.339Z,6.63
2022-11-18T23:58:56.258Z,4.37
